sensor_id;sensor_type;location;lat;lon;timestamp;P1;durP1;ratioP1;P2;durP2;ratioP2
21731;SDS011;11028;51.156;17.130;2022-08-14T00:06:48;23.52;;;17.10;;
21731;SDS011;11028;51.156;17.130;2022-08-14T00:14:05;22.25;;;16.48;;
21731;SDS011;11028;51.156;17.130;2022-08-14T00:21:22;21.55;;;17.48;;
21731;SDS011;11028;51.156;17.130;2022-08-14T00:28:40;19.30;;;16.15;;
21731;SDS011;11028;51.156;17.130;2022-08-14T00:35:57;19.70;;;16.25;;
21731;SDS011;11028;51.156;17.130;2022-08-14T00:43:14;22.75;;;16.63;;
21731;SDS011;11028;51.156;17.130;2022-08-14T00:50:32;18.95;;;15.77;;
21731;SDS011;11028;51.156;17.130;2022-08-14T00:57:50;20.65;;;16.20;;
21731;SDS011;11028;51.156;17.130;2022-08-14T01:05:20;19.10;;;15.55;;
21731;SDS011;11028;51.156;17.130;2022-08-14T01:12:40;18.95;;;15.93;;
21731;SDS011;11028;51.156;17.130;2022-08-14T01:19:57;22.02;;;15.82;;
21731;SDS011;11028;51.156;17.130;2022-08-14T01:27:33;20.55;;;14.77;;
21731;SDS011;11028;51.156;17.130;2022-08-14T01:34:53;17.75;;;13.65;;
21731;SDS011;11028;51.156;17.130;2022-08-14T01:42:10;19.70;;;15.23;;
21731;SDS011;11028;51.156;17.130;2022-08-14T01:49:29;16.98;;;14.90;;
21731;SDS011;11028;51.156;17.130;2022-08-14T01:56:46;19.55;;;15.95;;
21731;SDS011;11028;51.156;17.130;2022-08-14T02:04:04;19.88;;;16.23;;
21731;SDS011;11028;51.156;17.130;2022-08-14T02:11:27;20.50;;;17.20;;
21731;SDS011;11028;51.156;17.130;2022-08-14T02:18:44;21.05;;;16.92;;
21731;SDS011;11028;51.156;17.130;2022-08-14T02:26:12;21.65;;;17.20;;
21731;SDS011;11028;51.156;17.130;2022-08-14T02:33:32;25.83;;;17.50;;
21731;SDS011;11028;51.156;17.130;2022-08-14T02:40:49;22.02;;;16.70;;
21731;SDS011;11028;51.156;17.130;2022-08-14T02:48:06;25.80;;;19.48;;
21731;SDS011;11028;51.156;17.130;2022-08-14T02:55:26;25.42;;;18.30;;
21731;SDS011;11028;51.156;17.130;2022-08-14T03:02:47;26.63;;;16.93;;
21731;SDS011;11028;51.156;17.130;2022-08-14T03:10:05;24.00;;;18.27;;
21731;SDS011;11028;51.156;17.130;2022-08-14T03:17:24;26.42;;;20.15;;
21731;SDS011;11028;51.156;17.130;2022-08-14T03:24:41;24.05;;;18.10;;
21731;SDS011;11028;51.156;17.130;2022-08-14T03:31:58;22.55;;;17.17;;
21731;SDS011;11028;51.156;17.130;2022-08-14T03:39:17;22.02;;;16.65;;
21731;SDS011;11028;51.156;17.130;2022-08-14T03:46:35;23.05;;;17.17;;
21731;SDS011;11028;51.156;17.130;2022-08-14T03:53:54;23.73;;;19.20;;
21731;SDS011;11028;51.156;17.130;2022-08-14T04:01:13;22.88;;;18.13;;
21731;SDS011;11028;51.156;17.130;2022-08-14T04:08:33;25.88;;;19.08;;
21731;SDS011;11028;51.156;17.130;2022-08-14T04:15:51;22.10;;;16.95;;
21731;SDS011;11028;51.156;17.130;2022-08-14T04:23:10;27.05;;;17.73;;
21731;SDS011;11028;51.156;17.130;2022-08-14T04:30:27;24.05;;;17.70;;
21731;SDS011;11028;51.156;17.130;2022-08-14T04:37:44;27.10;;;18.20;;
21731;SDS011;11028;51.156;17.130;2022-08-14T04:45:22;23.35;;;17.60;;
21731;SDS011;11028;51.156;17.130;2022-08-14T04:52:39;22.27;;;17.42;;
21731;SDS011;11028;51.156;17.130;2022-08-14T04:59:58;22.55;;;16.55;;
21731;SDS011;11028;51.156;17.130;2022-08-14T05:07:16;19.77;;;15.23;;
21731;SDS011;11028;51.156;17.130;2022-08-14T05:14:33;20.08;;;14.80;;
21731;SDS011;11028;51.156;17.130;2022-08-14T05:21:50;20.65;;;14.55;;
21731;SDS011;11028;51.156;17.130;2022-08-14T05:29:09;19.00;;;14.65;;
21731;SDS011;11028;51.156;17.130;2022-08-14T05:36:26;18.42;;;14.93;;
21731;SDS011;11028;51.156;17.130;2022-08-14T05:43:43;23.30;;;16.20;;
21731;SDS011;11028;51.156;17.130;2022-08-14T05:51:03;23.67;;;15.25;;
21731;SDS011;11028;51.156;17.130;2022-08-14T05:58:21;20.35;;;16.52;;
21731;SDS011;11028;51.156;17.130;2022-08-14T06:05:39;17.55;;;15.18;;
21731;SDS011;11028;51.156;17.130;2022-08-14T06:12:58;23.42;;;16.60;;
21731;SDS011;11028;51.156;17.130;2022-08-14T06:20:17;25.02;;;17.13;;
21731;SDS011;11028;51.156;17.130;2022-08-14T06:27:35;21.15;;;16.98;;
21731;SDS011;11028;51.156;17.130;2022-08-14T06:34:54;22.95;;;17.52;;
21731;SDS011;11028;51.156;17.130;2022-08-14T06:42:11;24.98;;;20.00;;
21731;SDS011;11028;51.156;17.130;2022-08-14T06:49:28;20.75;;;17.58;;
21731;SDS011;11028;51.156;17.130;2022-08-14T06:56:47;20.52;;;16.45;;
21731;SDS011;11028;51.156;17.130;2022-08-14T07:04:04;19.25;;;16.92;;
21731;SDS011;11028;51.156;17.130;2022-08-14T07:11:39;21.88;;;16.85;;
21731;SDS011;11028;51.156;17.130;2022-08-14T07:18:57;21.20;;;16.80;;
21731;SDS011;11028;51.156;17.130;2022-08-14T07:26:14;21.33;;;15.68;;
21731;SDS011;11028;51.156;17.130;2022-08-14T07:33:32;22.52;;;19.55;;
21731;SDS011;11028;51.156;17.130;2022-08-14T07:40:51;20.33;;;15.40;;
21731;SDS011;11028;51.156;17.130;2022-08-14T07:48:08;21.52;;;14.38;;
21731;SDS011;11028;51.156;17.130;2022-08-14T07:55:26;14.90;;;13.18;;
21731;SDS011;11028;51.156;17.130;2022-08-14T08:02:45;17.42;;;13.65;;
21731;SDS011;11028;51.156;17.130;2022-08-14T08:10:04;26.38;;;19.50;;
21731;SDS011;11028;51.156;17.130;2022-08-14T08:17:37;16.40;;;12.68;;
21731;SDS011;11028;51.156;17.130;2022-08-14T08:24:55;15.35;;;11.80;;
21731;SDS011;11028;51.156;17.130;2022-08-14T08:32:12;12.90;;;11.55;;
21731;SDS011;11028;51.156;17.130;2022-08-14T08:39:30;15.93;;;9.73;;
21731;SDS011;11028;51.156;17.130;2022-08-14T08:46:55;15.45;;;10.13;;
21731;SDS011;11028;51.156;17.130;2022-08-14T08:54:13;12.13;;;9.95;;
21731;SDS011;11028;51.156;17.130;2022-08-14T09:01:30;14.02;;;10.32;;
21731;SDS011;11028;51.156;17.130;2022-08-14T09:08:51;22.25;;;13.48;;
21731;SDS011;11028;51.156;17.130;2022-08-14T09:16:08;14.48;;;11.70;;
21731;SDS011;11028;51.156;17.130;2022-08-14T09:23:26;13.05;;;11.43;;
21731;SDS011;11028;51.156;17.130;2022-08-14T09:30:45;17.13;;;11.85;;
21731;SDS011;11028;51.156;17.130;2022-08-14T09:38:05;20.30;;;12.80;;
21731;SDS011;11028;51.156;17.130;2022-08-14T09:45:27;15.25;;;11.63;;
21731;SDS011;11028;51.156;17.130;2022-08-14T09:52:51;16.20;;;12.93;;
21731;SDS011;11028;51.156;17.130;2022-08-14T10:00:11;24.27;;;14.90;;
21731;SDS011;11028;51.156;17.130;2022-08-14T10:07:31;18.17;;;14.68;;
21731;SDS011;11028;51.156;17.130;2022-08-14T10:14:51;23.00;;;15.77;;
21731;SDS011;11028;51.156;17.130;2022-08-14T10:22:08;23.08;;;15.77;;
21731;SDS011;11028;51.156;17.130;2022-08-14T10:29:29;23.63;;;15.57;;
21731;SDS011;11028;51.156;17.130;2022-08-14T10:36:49;17.47;;;15.07;;
21731;SDS011;11028;51.156;17.130;2022-08-14T10:44:20;21.40;;;14.55;;
21731;SDS011;11028;51.156;17.130;2022-08-14T10:51:40;19.43;;;14.33;;
21731;SDS011;11028;51.156;17.130;2022-08-14T10:59:00;16.92;;;13.57;;
21731;SDS011;11028;51.156;17.130;2022-08-14T11:06:18;16.65;;;13.40;;
21731;SDS011;11028;51.156;17.130;2022-08-14T11:13:39;20.75;;;15.23;;
21731;SDS011;11028;51.156;17.130;2022-08-14T11:20:59;25.25;;;18.40;;
21731;SDS011;11028;51.156;17.130;2022-08-14T11:28:19;22.13;;;17.83;;
21731;SDS011;11028;51.156;17.130;2022-08-14T11:35:40;23.92;;;19.40;;
21731;SDS011;11028;51.156;17.130;2022-08-14T11:42:59;17.35;;;14.10;;
21731;SDS011;11028;51.156;17.130;2022-08-14T11:50:20;13.75;;;12.13;;
21731;SDS011;11028;51.156;17.130;2022-08-14T11:57:38;11.60;;;9.65;;
21731;SDS011;11028;51.156;17.130;2022-08-14T12:04:57;9.93;;;8.63;;
21731;SDS011;11028;51.156;17.130;2022-08-14T12:12:14;12.00;;;9.38;;
21731;SDS011;11028;51.156;17.130;2022-08-14T12:19:41;12.25;;;10.80;;
21731;SDS011;11028;51.156;17.130;2022-08-14T12:27:01;14.27;;;10.93;;
21731;SDS011;11028;51.156;17.130;2022-08-14T12:34:18;14.38;;;12.30;;
21731;SDS011;11028;51.156;17.130;2022-08-14T12:41:35;15.57;;;13.07;;
21731;SDS011;11028;51.156;17.130;2022-08-14T12:48:54;15.88;;;10.50;;
21731;SDS011;11028;51.156;17.130;2022-08-14T12:56:15;17.17;;;12.55;;
21731;SDS011;11028;51.156;17.130;2022-08-14T13:03:33;17.95;;;14.35;;
21731;SDS011;11028;51.156;17.130;2022-08-14T13:10:53;26.05;;;16.80;;
21731;SDS011;11028;51.156;17.130;2022-08-14T13:18:12;25.52;;;18.10;;
21731;SDS011;11028;51.156;17.130;2022-08-14T13:25:29;29.75;;;21.58;;
21731;SDS011;11028;51.156;17.130;2022-08-14T13:32:48;28.50;;;20.85;;
21731;SDS011;11028;51.156;17.130;2022-08-14T13:40:05;32.50;;;22.67;;
21731;SDS011;11028;51.156;17.130;2022-08-14T13:47:23;32.75;;;23.20;;
21731;SDS011;11028;51.156;17.130;2022-08-14T13:54:46;32.20;;;19.95;;
21731;SDS011;11028;51.156;17.130;2022-08-14T14:02:04;27.83;;;20.17;;
21731;SDS011;11028;51.156;17.130;2022-08-14T14:09:25;23.25;;;18.10;;
21731;SDS011;11028;51.156;17.130;2022-08-14T14:16:45;26.73;;;19.95;;
21731;SDS011;11028;51.156;17.130;2022-08-14T14:24:03;21.45;;;16.70;;
21731;SDS011;11028;51.156;17.130;2022-08-14T14:31:21;24.45;;;17.55;;
21731;SDS011;11028;51.156;17.130;2022-08-14T14:38:40;23.85;;;17.23;;
21731;SDS011;11028;51.156;17.130;2022-08-14T14:45:59;22.70;;;17.92;;
21731;SDS011;11028;51.156;17.130;2022-08-14T14:53:16;28.05;;;21.27;;
21731;SDS011;11028;51.156;17.130;2022-08-14T15:00:35;27.95;;;18.67;;
21731;SDS011;11028;51.156;17.130;2022-08-14T15:07:52;23.98;;;18.27;;
21731;SDS011;11028;51.156;17.130;2022-08-14T15:15:10;22.23;;;17.13;;
21731;SDS011;11028;51.156;17.130;2022-08-14T15:22:32;22.42;;;16.10;;
21731;SDS011;11028;51.156;17.130;2022-08-14T15:29:50;20.58;;;15.65;;
21731;SDS011;11028;51.156;17.130;2022-08-14T15:37:07;15.90;;;11.90;;
21731;SDS011;11028;51.156;17.130;2022-08-14T15:44:25;13.05;;;10.27;;
21731;SDS011;11028;51.156;17.130;2022-08-14T15:51:47;15.03;;;11.43;;
21731;SDS011;11028;51.156;17.130;2022-08-14T15:59:04;14.68;;;11.10;;
21731;SDS011;11028;51.156;17.130;2022-08-14T16:06:22;16.75;;;11.25;;
21731;SDS011;11028;51.156;17.130;2022-08-14T16:13:42;15.93;;;11.10;;
21731;SDS011;11028;51.156;17.130;2022-08-14T16:20:59;13.60;;;10.45;;
21731;SDS011;11028;51.156;17.130;2022-08-14T16:28:23;10.40;;;7.30;;
21731;SDS011;11028;51.156;17.130;2022-08-14T16:35:40;7.70;;;6.10;;
21731;SDS011;11028;51.156;17.130;2022-08-14T16:42:59;7.93;;;6.18;;
21731;SDS011;11028;51.156;17.130;2022-08-14T16:50:18;8.18;;;6.07;;
21731;SDS011;11028;51.156;17.130;2022-08-14T16:57:37;10.45;;;6.45;;
21731;SDS011;11028;51.156;17.130;2022-08-14T17:05:28;9.05;;;7.13;;
21731;SDS011;11028;51.156;17.130;2022-08-14T17:12:46;8.95;;;7.32;;
21731;SDS011;11028;51.156;17.130;2022-08-14T17:20:04;9.38;;;7.25;;
21731;SDS011;11028;51.156;17.130;2022-08-14T17:27:24;10.82;;;8.57;;
21731;SDS011;11028;51.156;17.130;2022-08-14T17:34:42;11.23;;;9.00;;
21731;SDS011;11028;51.156;17.130;2022-08-14T17:42:02;13.85;;;9.73;;
21731;SDS011;11028;51.156;17.130;2022-08-14T17:49:21;10.27;;;8.98;;
21731;SDS011;11028;51.156;17.130;2022-08-14T17:56:39;13.70;;;10.80;;
21731;SDS011;11028;51.156;17.130;2022-08-14T18:03:56;16.00;;;10.27;;
21731;SDS011;11028;51.156;17.130;2022-08-14T18:11:18;15.15;;;10.50;;
21731;SDS011;11028;51.156;17.130;2022-08-14T18:18:37;12.70;;;9.88;;
21731;SDS011;11028;51.156;17.130;2022-08-14T18:25:59;12.93;;;9.95;;
21731;SDS011;11028;51.156;17.130;2022-08-14T18:33:19;16.05;;;11.20;;
21731;SDS011;11028;51.156;17.130;2022-08-14T18:40:37;18.95;;;11.75;;
21731;SDS011;11028;51.156;17.130;2022-08-14T18:55:46;12.25;;;10.30;;
21731;SDS011;11028;51.156;17.130;2022-08-14T19:03:05;17.33;;;11.60;;
21731;SDS011;11028;51.156;17.130;2022-08-14T19:10:29;16.85;;;11.05;;
21731;SDS011;11028;51.156;17.130;2022-08-14T19:17:46;16.80;;;11.07;;
21731;SDS011;11028;51.156;17.130;2022-08-14T19:25:04;13.88;;;11.45;;
21731;SDS011;11028;51.156;17.130;2022-08-14T19:32:34;15.20;;;11.35;;
21731;SDS011;11028;51.156;17.130;2022-08-14T19:39:54;16.73;;;11.87;;
21731;SDS011;11028;51.156;17.130;2022-08-14T19:47:12;18.30;;;10.68;;
21731;SDS011;11028;51.156;17.130;2022-08-14T19:54:34;14.32;;;11.38;;
21731;SDS011;11028;51.156;17.130;2022-08-14T20:01:58;16.40;;;11.18;;
21731;SDS011;11028;51.156;17.130;2022-08-14T20:09:15;16.77;;;11.65;;
21731;SDS011;11028;51.156;17.130;2022-08-14T20:16:36;17.63;;;12.00;;
21731;SDS011;11028;51.156;17.130;2022-08-14T20:31:44;22.33;;;16.80;;
21731;SDS011;11028;51.156;17.130;2022-08-14T20:39:02;18.02;;;14.23;;
21731;SDS011;11028;51.156;17.130;2022-08-14T20:46:25;15.67;;;12.00;;
21731;SDS011;11028;51.156;17.130;2022-08-14T20:53:53;17.73;;;12.55;;
21731;SDS011;11028;51.156;17.130;2022-08-14T21:01:28;17.00;;;13.15;;
21731;SDS011;11028;51.156;17.130;2022-08-14T21:08:49;19.38;;;13.75;;
21731;SDS011;11028;51.156;17.130;2022-08-14T21:16:10;19.17;;;13.93;;
21731;SDS011;11028;51.156;17.130;2022-08-14T21:23:30;17.15;;;12.75;;
21731;SDS011;11028;51.156;17.130;2022-08-14T21:30:48;18.58;;;13.27;;
21731;SDS011;11028;51.156;17.130;2022-08-14T21:38:09;24.00;;;16.00;;
21731;SDS011;11028;51.156;17.130;2022-08-14T21:45:31;17.75;;;14.35;;
21731;SDS011;11028;51.156;17.130;2022-08-14T21:52:49;20.00;;;14.02;;
21731;SDS011;11028;51.156;17.130;2022-08-14T22:00:08;20.13;;;13.90;;
21731;SDS011;11028;51.156;17.130;2022-08-14T22:07:29;29.33;;;17.73;;
21731;SDS011;11028;51.156;17.130;2022-08-14T22:14:48;24.90;;;15.45;;
21731;SDS011;11028;51.156;17.130;2022-08-14T22:22:05;21.73;;;14.52;;
21731;SDS011;11028;51.156;17.130;2022-08-14T22:29:24;26.27;;;16.25;;
21731;SDS011;11028;51.156;17.130;2022-08-14T22:36:41;25.35;;;16.38;;
21731;SDS011;11028;51.156;17.130;2022-08-14T22:44:04;23.13;;;15.10;;
21731;SDS011;11028;51.156;17.130;2022-08-14T22:51:23;23.73;;;15.88;;
21731;SDS011;11028;51.156;17.130;2022-08-14T22:58:42;19.63;;;14.25;;
21731;SDS011;11028;51.156;17.130;2022-08-14T23:06:00;19.73;;;14.68;;
21731;SDS011;11028;51.156;17.130;2022-08-14T23:13:21;21.00;;;14.70;;
21731;SDS011;11028;51.156;17.130;2022-08-14T23:20:39;24.25;;;17.13;;
21731;SDS011;11028;51.156;17.130;2022-08-14T23:27:56;23.42;;;16.27;;
21731;SDS011;11028;51.156;17.130;2022-08-14T23:35:14;22.63;;;15.48;;
21731;SDS011;11028;51.156;17.130;2022-08-14T23:42:32;19.20;;;14.85;;
21731;SDS011;11028;51.156;17.130;2022-08-14T23:49:48;24.85;;;15.60;;
21731;SDS011;11028;51.156;17.130;2022-08-14T23:57:07;24.50;;;17.00;;
